Time;durP1;ratioP1;P1;durP2;ratioP2;P2;SDS_P1;SDS_P2;PMS_P1;PMS_P2;Temp;Humidity;BMP_temperature;BMP_pressure;BME280_temperature;BME280_humidity;BME280_pressure;Samples;Min_cycle;Max_cycle;Signal;HPM_P1;HPM_P2
2022/12/21 00:01:21;;;;;;;10.80;9.70;;;10.90;99.90;;;;;;5117423;28;20497;-83
2022/12/21 00:03:53;;;;;;;12.10;8.43;;;10.90;99.90;;;;;;5114100;28;20493;-83
2022/12/21 00:06:21;;;;;;;13.13;10.67;;;10.90;99.90;;;;;;5114746;28;20835;-83
2022/12/21 00:08:48;;;;;;;11.53;9.47;;;10.90;99.90;;;;;;5109080;28;20490;-82
2022/12/21 00:11:16;;;;;;;12.03;10.73;;;10.90;99.90;;;;;;5092692;28;20465;-83
2022/12/21 00:13:43;;;;;;;10.97;9.87;;;10.90;99.90;;;;;;5101955;28;20472;-82
2022/12/21 00:16:12;;;;;;;12.00;10.40;;;10.90;99.90;;;;;;5119915;28;20530;-82
2022/12/21 00:18:40;;;;;;;11.80;10.50;;;10.90;99.90;;;;;;5116679;28;20462;-82
2022/12/21 00:21:10;;;;;;;12.93;10.37;;;10.80;99.90;;;;;;5096377;28;20464;-84
2022/12/21 00:23:37;;;;;;;13.60;10.50;;;10.80;99.90;;;;;;5099991;28;20490;-84
2022/12/21 00:26:06;;;;;;;13.13;9.80;;;10.80;99.90;;;;;;5099248;28;20453;-81
2022/12/21 00:28:33;;;;;;;15.27;12.13;;;10.90;99.90;;;;;;5097300;28;20456;-84
2022/12/21 00:31:06;;;;;;;16.27;10.63;;;10.90;99.90;;;;;;5105570;28;20457;-84
2022/12/21 00:36:13;;;;;;;13.27;11.87;;;10.80;99.90;;;;;;5040232;28;20477;-85
2022/12/21 00:38:40;;;;;;;15.60;10.97;;;10.90;99.90;;;;;;5037142;28;20892;-84
2022/12/21 00:41:11;;;;;;;12.20;10.93;;;10.90;99.90;;;;;;5045818;28;20527;-84
2022/12/21 00:43:41;;;;;;;11.50;10.20;;;10.90;99.90;;;;;;5056673;28;20488;-85
2022/12/21 00:46:10;;;;;;;13.00;10.30;;;10.90;99.90;;;;;;5022585;28;20532;-84
2022/12/21 00:48:37;;;;;;;13.40;10.93;;;10.90;99.90;;;;;;5020381;28;20460;-83
2022/12/21 00:51:05;;;;;;;13.87;10.80;;;10.80;99.90;;;;;;5019499;28;20460;-83
2022/12/21 00:53:33;;;;;;;15.63;11.57;;;10.80;99.90;;;;;;5032280;28;20455;-84
2022/12/21 00:56:02;;;;;;;13.60;11.37;;;10.80;99.90;;;;;;5033701;28;20452;-87
2022/12/21 00:58:30;;;;;;;15.07;11.23;;;10.80;99.90;;;;;;5034564;28;20438;-85
2022/12/21 01:00:58;;;;;;;13.60;11.10;;;10.80;99.90;;;;;;5043275;28;20506;-84
2022/12/21 01:03:26;;;;;;;14.60;12.00;;;10.80;99.90;;;;;;5051179;28;20544;-86
2022/12/21 01:05:54;;;;;;;12.20;10.90;;;10.80;99.90;;;;;;5043599;28;20538;-84
2022/12/21 01:08:22;;;;;;;13.90;11.50;;;10.80;99.90;;;;;;5043816;28;20428;-83
2022/12/21 01:10:50;;;;;;;15.70;13.23;;;10.80;99.90;;;;;;5040017;28;20520;-83
2022/12/21 01:13:17;;;;;;;16.40;13.10;;;10.80;99.90;;;;;;5059355;28;20435;-84
2022/12/21 01:15:46;;;;;;;17.17;13.93;;;10.70;99.90;;;;;;5044520;28;20516;-83
2022/12/21 01:18:15;;;;;;;17.87;13.20;;;10.80;99.90;;;;;;5023689;28;20474;-83
2022/12/21 01:20:46;;;;;;;18.17;14.43;;;10.80;99.90;;;;;;5032844;28;20466;-84
2022/12/21 01:23:15;;;;;;;16.70;13.93;;;10.80;99.90;;;;;;5007795;28;20465;-84
2022/12/21 01:25:43;;;;;;;21.03;14.70;;;10.80;99.90;;;;;;5019469;28;20884;-84
2022/12/21 01:28:11;;;;;;;18.60;14.33;;;10.70;99.90;;;;;;5033763;28;20450;-85
2022/12/21 01:30:39;;;;;;;16.43;13.93;;;10.80;99.90;;;;;;5019730;28;20456;-84
2022/12/21 01:33:06;;;;;;;17.80;13.13;;;10.80;99.90;;;;;;5018791;28;20858;-83
2022/12/21 01:35:33;;;;;;;19.57;14.90;;;10.80;99.90;;;;;;5018300;28;21005;-84
2022/12/21 01:37:59;;;;;;;18.53;14.73;;;10.70;99.90;;;;;;5018591;28;20457;-86
2022/12/21 01:40:30;;;;;;;19.57;14.80;;;10.80;99.90;;;;;;5017967;28;20458;-83
2022/12/21 01:42:58;;;;;;;17.53;13.63;;;10.80;99.90;;;;;;5023523;28;20550;-83
2022/12/21 01:45:28;;;;;;;25.70;15.37;;;10.80;99.90;;;;;;5036656;28;20475;-83
2022/12/21 01:47:58;;;;;;;19.17;14.63;;;10.80;99.90;;;;;;5017289;28;20482;-83
2022/12/21 01:50:35;;;;;;;19.80;15.30;;;10.80;99.90;;;;;;5017545;28;20456;-83
2022/12/21 01:53:09;;;;;;;22.53;14.63;;;10.80;99.90;;;;;;5017497;28;20465;-83
2022/12/21 01:55:37;;;;;;;18.30;14.40;;;10.80;99.90;;;;;;5017693;28;20484;-84
2022/12/21 01:58:06;;;;;;;23.00;16.67;;;10.80;99.90;;;;;;5017406;28;20487;-83
2022/12/21 02:00:34;;;;;;;19.50;15.23;;;10.80;99.90;;;;;;5028795;28;20452;-83
2022/12/21 02:03:05;;;;;;;22.93;17.57;;;10.80;99.90;;;;;;5035894;28;20539;-84
2022/12/21 02:05:37;;;;;;;25.13;15.77;;;10.80;99.90;;;;;;5041177;28;20463;-83
2022/12/21 02:08:05;;;;;;;27.87;19.53;;;10.70;99.90;;;;;;5038795;28;20535;-83
2022/12/21 02:10:33;;;;;;;26.20;17.03;;;10.70;99.90;;;;;;5027546;28;20453;-83
2022/12/21 02:13:02;;;;;;;22.60;16.13;;;10.70;99.90;;;;;;5025779;28;20535;-83
2022/12/21 02:15:46;;;;;;;20.87;15.57;;;10.70;99.90;;;;;;5039057;28;20482;-83
2022/12/21 02:18:20;;;;;;;23.63;16.40;;;10.70;99.90;;;;;;5030760;28;20480;-83
2022/12/21 02:21:12;;;;;;;22.17;17.60;;;10.70;99.90;;;;;;5014343;28;20455;-83
2022/12/21 02:24:15;;;;;;;25.80;18.60;;;10.70;99.90;;;;;;5027754;28;20505;-83
2022/12/21 02:27:08;;;;;;;24.50;16.57;;;10.80;99.90;;;;;;5002029;28;20571;-83
2022/12/21 02:30:03;;;;;;;22.20;16.43;;;10.80;99.90;;;;;;5019500;28;20460;-84
2022/12/21 02:32:43;;;;;;;24.43;17.60;;;10.80;99.90;;;;;;5033265;28;20449;-84
2022/12/21 02:35:20;;;;;;;22.53;15.83;;;10.80;99.90;;;;;;5036031;28;20487;-84
2022/12/21 02:37:57;;;;;;;26.80;17.33;;;10.80;99.90;;;;;;4999146;28;20472;-83
2022/12/21 02:40:36;;;;;;;23.40;14.50;;;10.70;99.90;;;;;;5013756;28;20465;-84
2022/12/21 02:46:08;;;;;;;23.27;16.50;;;10.70;99.90;;;;;;4937455;28;20470;-85
2022/12/21 02:48:43;;;;;;;23.63;14.90;;;10.70;99.90;;;;;;5012260;28;20831;-86
2022/12/21 02:51:16;;;;;;;25.47;15.07;;;10.70;99.90;;;;;;5020116;28;20456;-85
2022/12/21 02:53:45;;;;;;;25.50;16.57;;;10.70;99.90;;;;;;5031218;28;20538;-84
2022/12/21 02:56:15;;;;;;;22.77;16.00;;;10.70;99.90;;;;;;5039322;28;20448;-84
2022/12/21 02:58:42;;;;;;;22.63;14.97;;;10.70;99.90;;;;;;5035006;28;20992;-85
2022/12/21 03:01:18;;;;;;;22.90;15.50;;;10.70;99.90;;;;;;5027690;28;20456;-84
2022/12/21 03:04:07;;;;;;;23.03;14.90;;;10.70;99.90;;;;;;5038358;28;20973;-85
2022/12/21 03:06:57;;;;;;;20.57;13.60;;;10.70;99.90;;;;;;5031922;28;20453;-83
2022/12/21 03:09:34;;;;;;;19.90;13.90;;;10.70;99.90;;;;;;5018740;28;20540;-83
2022/12/21 03:12:07;;;;;;;20.27;13.70;;;10.70;99.90;;;;;;5021388;28;20450;-84
2022/12/21 03:14:44;;;;;;;24.30;15.73;;;10.60;99.90;;;;;;5018306;28;20465;-84
2022/12/21 03:17:18;;;;;;;22.80;14.93;;;10.70;99.90;;;;;;5027817;28;20455;-83
2022/12/21 03:19:54;;;;;;;22.70;13.80;;;10.70;99.90;;;;;;5032003;28;20448;-84
2022/12/21 03:22:27;;;;;;;21.10;15.20;;;10.70;99.90;;;;;;5028809;28;21136;-83
2022/12/21 03:25:01;;;;;;;22.70;14.40;;;10.70;99.90;;;;;;5038171;28;20464;-84
2022/12/21 03:27:32;;;;;;;20.50;13.40;;;10.70;99.90;;;;;;5022725;28;20548;-84
2022/12/21 03:30:03;;;;;;;20.70;13.83;;;10.70;99.90;;;;;;5016588;28;20821;-84
2022/12/21 03:32:35;;;;;;;24.03;14.13;;;10.70;99.90;;;;;;5034342;28;20460;-84
2022/12/21 03:35:09;;;;;;;22.87;14.13;;;10.70;99.90;;;;;;5022979;28;20862;-82
2022/12/21 03:37:39;;;;;;;19.10;13.10;;;10.70;99.90;;;;;;5032473;28;20495;-84
2022/12/21 03:40:11;;;;;;;17.30;12.47;;;10.70;99.90;;;;;;5035516;28;20440;-85
2022/12/21 03:42:44;;;;;;;17.63;11.60;;;10.70;99.90;;;;;;5036384;28;20458;-84
2022/12/21 03:45:14;;;;;;;21.43;15.13;;;10.70;99.90;;;;;;5039491;28;20484;-85
2022/12/21 03:47:46;;;;;;;18.17;12.70;;;10.60;99.90;;;;;;5039634;28;20463;-84
2022/12/21 03:50:18;;;;;;;23.80;15.10;;;10.70;99.90;;;;;;5032566;28;20450;-83
2022/12/21 03:52:50;;;;;;;19.70;13.20;;;10.60;99.90;;;;;;5020055;28;20461;-84
2022/12/21 03:55:22;;;;;;;21.90;12.80;;;10.70;99.90;;;;;;5020866;28;20808;-83
2022/12/21 03:57:50;;;;;;;21.80;13.50;;;10.70;99.90;;;;;;5037233;28;20455;-85
2022/12/21 04:00:17;;;;;;;17.80;12.00;;;10.70;99.90;;;;;;5039566;28;20459;-85
2022/12/21 04:02:53;;;;;;;17.47;12.20;;;10.70;99.90;;;;;;5021394;28;20514;-84
2022/12/21 04:05:25;;;;;;;17.23;12.20;;;10.70;99.90;;;;;;5020403;28;20486;-85
2022/12/21 04:07:54;;;;;;;17.50;13.70;;;10.70;99.90;;;;;;5020276;28;20441;-84
2022/12/21 04:10:22;;;;;;;20.53;12.83;;;10.70;99.90;;;;;;5020214;28;20460;-84
2022/12/21 04:12:48;;;;;;;15.60;11.30;;;10.70;99.90;;;;;;5039090;28;20804;-83
2022/12/21 04:15:17;;;;;;;21.37;12.70;;;10.70;99.90;;;;;;5040409;28;20482;-83
2022/12/21 04:17:47;;;;;;;16.97;11.43;;;10.70;99.90;;;;;;5039530;28;20679;-83
2022/12/21 04:20:15;;;;;;;17.67;12.10;;;10.70;99.90;;;;;;5040258;28;21029;-84
2022/12/21 04:28:20;;;;;;;15.23;10.70;;;10.70;99.90;;;;;;5021074;28;20830;-81
2022/12/21 04:30:47;;;;;;;15.93;10.70;;;10.70;99.90;;;;;;5019690;28;20456;-83
2022/12/21 04:33:16;;;;;;;15.60;10.13;;;10.70;99.90;;;;;;5025601;28;20556;-82
2022/12/21 04:38:25;;;;;;;33.07;19.77;;;10.60;99.90;;;;;;5019870;28;20461;-83
2022/12/21 04:40:53;;;;;;;20.27;13.20;;;10.60;99.90;;;;;;5021340;28;20551;-81
2022/12/21 04:43:20;;;;;;;14.83;9.93;;;10.60;99.90;;;;;;5026502;28;20495;-82
2022/12/21 04:45:46;;;;;;;18.90;11.30;;;10.60;99.90;;;;;;5038290;28;20546;-81
2022/12/21 04:48:13;;;;;;;14.93;9.20;;;10.70;99.90;;;;;;5021816;28;20473;-82
2022/12/21 04:50:41;;;;;;;22.63;12.17;;;10.70;99.90;;;;;;5019541;28;20809;-83
2022/12/21 04:53:08;;;;;;;26.50;14.30;;;10.70;99.90;;;;;;5027468;28;20827;-83
2022/12/21 04:55:36;;;;;;;25.50;13.63;;;10.70;99.90;;;;;;5030467;28;21005;-82
2022/12/21 04:58:03;;;;;;;18.20;11.17;;;10.70;99.90;;;;;;5018058;28;20460;-83
2022/12/21 05:00:29;;;;;;;17.50;11.03;;;10.60;99.90;;;;;;5026376;28;20535;-82
2022/12/21 05:02:56;;;;;;;25.43;14.63;;;10.70;99.90;;;;;;5025609;28;20460;-82
2022/12/21 05:05:23;;;;;;;22.13;12.23;;;10.60;99.90;;;;;;5019615;28;20629;-83
2022/12/21 05:07:51;;;;;;;20.10;12.13;;;10.60;99.90;;;;;;5016982;28;20459;-82
2022/12/21 05:10:18;;;;;;;16.37;10.17;;;10.60;99.90;;;;;;5024629;28;20545;-84
2022/12/21 05:12:46;;;;;;;15.17;9.93;;;10.70;99.90;;;;;;5013965;28;20460;-83
2022/12/21 05:15:16;;;;;;;17.70;10.63;;;10.70;99.90;;;;;;5017197;28;20477;-83
2022/12/21 05:17:43;;;;;;;21.07;11.77;;;10.70;99.90;;;;;;5017191;28;20662;-83
2022/12/21 05:20:10;;;;;;;19.47;10.80;;;10.70;99.90;;;;;;5020347;28;20961;-83
2022/12/21 05:22:37;;;;;;;16.10;10.20;;;10.70;99.90;;;;;;5024983;28;20459;-83
2022/12/21 05:25:04;;;;;;;19.40;11.77;;;10.70;99.90;;;;;;5032820;28;20486;-83
2022/12/21 05:27:31;;;;;;;16.57;10.03;;;10.70;99.90;;;;;;5023392;28;20459;-82
2022/12/21 05:29:59;;;;;;;11.53;8.93;;;10.70;99.90;;;;;;5015317;28;20458;-83
2022/12/21 05:32:25;;;;;;;17.77;10.53;;;10.70;99.90;;;;;;5017590;28;20837;-82
2022/12/21 05:34:52;;;;;;;13.50;9.03;;;10.70;99.90;;;;;;5022428;28;20894;-81
2022/12/21 05:37:19;;;;;;;16.30;8.93;;;10.70;99.90;;;;;;5017146;28;20467;-84
2022/12/21 05:39:46;;;;;;;16.10;9.57;;;10.60;99.90;;;;;;5018800;28;20542;-85
2022/12/21 05:42:13;;;;;;;14.37;9.30;;;10.60;99.90;;;;;;5016647;28;20460;-84
2022/12/21 05:44:39;;;;;;;17.47;9.00;;;10.70;99.90;;;;;;5017440;28;20478;-84
2022/12/21 05:47:07;;;;;;;16.93;9.63;;;10.70;99.90;;;;;;5016877;28;20456;-83
2022/12/21 05:49:34;;;;;;;16.30;9.80;;;10.60;99.90;;;;;;5018921;28;20456;-84
2022/12/21 05:52:01;;;;;;;14.03;8.97;;;10.60;99.90;;;;;;5024136;28;20468;-83
2022/12/21 05:54:28;;;;;;;67.70;53.00;;;;;;;;;;5014270;28;20473;-85
2022/12/21 05:56:55;;;;;;;17.43;9.93;;;10.80;99.90;;;;;;5018771;28;20978;-84
2022/12/21 05:59:22;;;;;;;33.83;21.47;;;10.20;99.90;;;;;;5018819;28;20460;-84
2022/12/21 06:01:49;;;;;;;16.83;7.90;;;10.60;99.90;;;;;;5018987;28;20467;-85
2022/12/21 06:04:17;;;;;;;12.33;8.40;;;10.90;99.90;;;;;;5017906;28;20600;-83
2022/12/21 06:06:46;;;;;;;18.37;12.23;;;10.90;99.90;;;;;;5017900;28;20475;-84
2022/12/21 06:09:13;;;;;;;19.00;13.70;;;10.00;99.90;;;;;;5017992;28;20477;-85
2022/12/21 06:11:39;;;;;;;13.43;7.50;;;10.60;99.90;;;;;;5019417;28;20460;-84
2022/12/21 06:14:06;;;;;;;13.90;7.80;;;10.40;99.90;;;;;;5019386;28;20483;-85
2022/12/21 06:16:33;;;;;;;12.10;7.83;;;10.60;99.90;;;;;;5020063;28;20969;-85
2022/12/21 06:19:00;;;;;;;10.70;7.00;;;10.60;99.90;;;;;;5018796;28;20458;-85
2022/12/21 06:21:28;;;;;;;10.97;7.27;;;10.50;99.90;;;;;;5031529;28;20495;-85
2022/12/21 06:23:55;;;;;;;9.03;6.40;;;10.50;99.90;;;;;;5037178;28;20488;-84
2022/12/21 06:26:22;;;;;;;11.50;7.70;;;10.50;99.90;;;;;;5036191;28;20547;-85
2022/12/21 06:28:49;;;;;;;9.30;5.77;;;9.30;99.90;;;;;;5035904;28;20462;-85
2022/12/21 06:31:17;;;;;;;10.50;6.80;;;10.50;99.90;;;;;;5019957;28;20460;-85
2022/12/21 06:33:44;;;;;;;9.60;6.83;;;10.50;99.90;;;;;;5016379;28;20457;-84
2022/12/21 06:36:11;;;;;;;8.90;6.30;;;10.50;99.90;;;;;;5051737;22;20511;-79
2022/12/21 06:38:40;;;;;;;9.10;6.13;;;10.50;99.90;;;;;;5032406;28;20523;-80
2022/12/21 06:41:10;;;;;;;10.17;6.40;;;10.40;99.90;;;;;;5028988;28;20819;-81
2022/12/21 06:43:38;;;;;;;11.93;7.10;;;10.40;99.90;;;;;;5033460;28;20490;-80
2022/12/21 06:46:07;;;;;;;9.23;6.00;;;10.40;99.90;;;;;;5014539;28;20553;-79
2022/12/21 06:48:34;;;;;;;8.30;6.00;;;10.40;99.90;;;;;;5011357;28;20456;-81
2022/12/21 06:51:04;;;;;;;8.90;5.80;;;10.50;99.90;;;;;;5013326;28;20458;-81
2022/12/21 06:53:35;;;;;;;10.17;4.83;;;10.40;99.90;;;;;;5011639;28;20480;-81
2022/12/21 06:56:05;;;;;;;8.30;5.57;;;10.40;99.90;;;;;;5014820;28;21026;-81
2022/12/21 06:58:33;;;;;;;7.40;4.97;;;10.30;99.90;;;;;;5012247;28;20455;-81
2022/12/21 07:01:05;;;;;;;11.70;5.87;;;10.40;99.90;;;;;;5016903;28;21186;-80
2022/12/21 07:03:32;;;;;;;22.00;19.60;;;10.30;99.90;;;;;;5019025;28;20457;-81
2022/12/21 07:05:59;;;;;;;5.80;4.50;;;10.40;99.90;;;;;;5015890;28;20840;-80
2022/12/21 07:08:26;;;;;;;9.80;7.03;;;10.30;99.90;;;;;;5008728;28;20469;-80
2022/12/21 07:10:56;;;;;;;7.70;5.43;;;10.30;99.90;;;;;;5008621;28;20553;-81
2022/12/21 07:13:25;;;;;;;12.30;8.53;;;8.70;99.90;;;;;;5005175;28;20457;-80
2022/12/21 07:15:51;;;;;;;9.93;6.60;;;10.30;99.90;;;;;;5005288;28;20485;-80
2022/12/21 07:18:20;;;;;;;11.90;6.27;;;10.30;99.90;;;;;;5008448;28;21055;-79
2022/12/21 07:20:47;;;;;;;8.23;5.53;;;10.30;99.90;;;;;;5012968;28;20462;-80
2022/12/21 07:23:14;;;;;;;11.60;7.23;;;10.40;99.90;;;;;;5017181;28;20881;-80
2022/12/21 07:25:41;;;;;;;9.77;5.83;;;10.40;99.90;;;;;;5015472;28;20503;-81
2022/12/21 07:28:08;;;;;;;9.40;6.13;;;10.40;99.90;;;;;;5015674;28;21448;-80
2022/12/21 07:30:36;;;;;;;9.20;6.47;;;10.40;99.90;;;;;;5010748;28;20469;-80
2022/12/21 07:33:03;;;;;;;10.00;6.50;;;10.40;99.90;;;;;;5013814;28;20460;-81
2022/12/21 07:35:31;;;;;;;8.93;5.03;;;10.40;99.90;;;;;;5015149;28;20903;-80
2022/12/21 07:37:58;;;;;;;13.40;6.73;;;10.40;99.90;;;;;;5012246;28;20489;-79
2022/12/21 07:40:25;;;;;;;12.60;8.00;;;10.70;99.90;;;;;;5014662;28;20543;-80
2022/12/21 07:42:52;;;;;;;14.27;7.47;;;10.40;99.90;;;;;;5014195;28;20545;-79
2022/12/21 07:45:19;;;;;;;15.23;8.90;;;10.40;99.90;;;;;;5019122;28;20507;-80
2022/12/21 07:47:48;;;;;;;12.63;7.93;;;10.40;99.90;;;;;;5006634;28;20462;-80
2022/12/21 07:50:15;;;;;;;13.03;8.33;;;10.40;99.90;;;;;;5018189;28;20876;-80
2022/12/21 07:52:42;;;;;;;13.90;9.77;;;10.70;99.90;;;;;;5016802;28;20492;-80
2022/12/21 07:55:09;;;;;;;10.23;6.00;;;10.40;99.90;;;;;;5018373;28;21098;-80
2022/12/21 07:57:36;;;;;;;13.57;8.07;;;10.40;99.90;;;;;;5016923;28;20462;-81
2022/12/21 08:00:04;;;;;;;14.47;9.10;;;10.50;99.90;;;;;;5018671;28;20498;-80
2022/12/21 08:02:31;;;;;;;15.80;9.33;;;10.50;99.90;;;;;;5022255;28;20953;-81
2022/12/21 08:05:00;;;;;;;13.50;8.83;;;10.50;99.90;;;;;;5016765;28;20500;-81
2022/12/21 08:07:26;;;;;;;15.87;9.80;;;10.50;99.90;;;;;;5016297;28;20547;-83
2022/12/21 08:09:54;;;;;;;19.10;10.20;;;10.80;99.90;;;;;;5011950;28;20486;-80
2022/12/21 08:12:20;;;;;;;21.37;12.70;;;10.40;99.90;;;;;;5019173;28;20461;-81
2022/12/21 08:14:47;;;;;;;23.07;14.17;;;10.40;99.90;;;;;;5016375;28;21195;-83
2022/12/21 08:17:14;;;;;;;26.03;12.60;;;10.40;99.90;;;;;;5019864;28;20557;-81
2022/12/21 08:19:41;;;;;;;21.80;13.20;;;10.40;99.90;;;;;;5006908;28;20528;-79
2022/12/21 08:22:10;;;;;;;31.27;14.23;;;10.50;99.90;;;;;;5010883;28;20517;-80
2022/12/21 08:24:37;;;;;;;33.70;14.93;;;10.50;99.90;;;;;;5015772;28;21041;-82
2022/12/21 08:27:04;;;;;;;30.93;16.30;;;10.50;99.90;;;;;;5015240;28;20467;-81
2022/12/21 08:29:31;;;;;;;36.00;17.33;;;10.40;99.90;;;;;;5020372;28;20467;-80
2022/12/21 08:31:58;;;;;;;37.90;18.23;;;10.40;99.90;;;;;;5012357;28;20567;-81
2022/12/21 08:34:24;;;;;;;31.67;16.27;;;10.30;99.90;;;;;;5016108;28;20455;-82
2022/12/21 08:36:51;;;;;;;28.63;16.30;;;10.30;99.90;;;;;;5010710;28;20460;-82
2022/12/21 08:39:19;;;;;;;30.83;17.30;;;10.40;99.90;;;;;;5009058;28;20545;-81
2022/12/21 08:41:46;;;;;;;33.83;17.97;;;10.40;99.90;;;;;;5019546;28;20532;-82
2022/12/21 08:44:13;;;;;;;32.93;16.77;;;10.30;99.90;;;;;;5031393;28;20463;-82
2022/12/21 08:46:41;;;;;;;35.20;17.07;;;10.40;99.90;;;;;;5014339;28;20572;-81
2022/12/21 08:49:07;;;;;;;32.73;17.50;;;10.30;99.90;;;;;;5019920;28;20463;-80
2022/12/21 08:51:37;;;;;;;34.40;17.40;;;10.30;99.90;;;;;;5018709;28;20540;-81
2022/12/21 08:54:04;;;;;;;41.33;17.73;;;10.50;99.90;;;;;;5016591;28;20464;-80
2022/12/21 08:56:33;;;;;;;32.90;19.10;;;10.40;99.90;;;;;;5017752;28;20511;-82
2022/12/21 08:59:01;;;;;;;40.70;19.33;;;10.30;99.90;;;;;;5006591;28;20475;-81
2022/12/21 09:01:28;;;;;;;40.37;19.80;;;10.30;99.90;;;;;;5011285;28;20666;-81
2022/12/21 09:03:55;;;;;;;38.90;18.83;;;10.20;99.90;;;;;;5014324;28;20551;-81
2022/12/21 09:06:22;;;;;;;36.87;18.50;;;10.20;99.90;;;;;;5016105;28;20587;-81
2022/12/21 09:08:49;;;;;;;42.07;19.80;;;10.30;99.90;;;;;;5014195;28;20463;-80
2022/12/21 09:11:19;;;;;;;37.70;19.00;;;10.30;99.90;;;;;;5018131;28;20995;-80
2022/12/21 09:13:47;;;;;;;42.50;18.50;;;10.30;99.90;;;;;;5017111;28;20498;-80
2022/12/21 09:16:16;;;;;;;42.67;18.20;;;10.30;99.90;;;;;;5017262;28;20475;-81
2022/12/21 09:18:44;;;;;;;36.23;17.70;;;10.40;99.90;;;;;;5016809;28;21020;-81
2022/12/21 09:21:11;;;;;;;44.13;18.10;;;10.30;99.90;;;;;;5012474;28;20460;-80
2022/12/21 09:23:38;;;;;;;50.23;24.17;;;10.30;99.90;;;;;;5012141;28;20534;-82
2022/12/21 09:26:05;;;;;;;43.40;19.80;;;10.30;99.90;;;;;;5017202;28;20499;-80
2022/12/21 09:28:32;;;;;;;40.83;21.10;;;10.20;99.90;;;;;;5016927;28;20457;-81
2022/12/21 09:31:08;;;;;;;48.40;20.00;;;10.30;99.90;;;;;;5018884;28;20525;-81
2022/12/21 09:33:35;;;;;;;44.70;20.87;;;10.20;99.90;;;;;;5018716;28;20452;-82
2022/12/21 09:36:02;;;;;;;68.73;34.50;;;10.30;99.90;;;;;;5017633;28;20516;-81
2022/12/21 09:38:29;;;;;;;45.97;22.83;;;10.30;99.90;;;;;;5021634;28;20488;-81
2022/12/21 09:41:01;;;;;;;47.07;18.63;;;10.20;99.90;;;;;;5020200;28;20528;-83
2022/12/21 09:43:38;;;;;;;53.20;19.10;;;10.20;99.90;;;;;;5031283;28;20542;-82
2022/12/21 09:46:11;;;;;;;38.17;17.10;;;10.50;99.90;;;;;;5032486;28;20551;-79
2022/12/21 09:48:41;;;;;;;43.00;16.37;;;10.20;99.90;;;;;;5042837;28;20512;-81
2022/12/21 09:51:15;;;;;;;31.97;17.87;;;10.40;99.90;;;;;;5024770;28;20455;-81
2022/12/21 09:53:48;;;;;;;41.37;16.33;;;10.20;99.90;;;;;;5032588;28;20475;-82
2022/12/21 09:56:19;;;;;;;31.63;15.57;;;10.10;99.90;;;;;;5029650;28;20476;-82
2022/12/21 09:58:49;;;;;;;33.50;15.13;;;10.20;99.90;;;;;;5011252;28;20672;-81
2022/12/21 10:01:23;;;;;;;35.77;15.27;;;10.10;99.90;;;;;;5018489;28;20951;-82
2022/12/21 10:04:12;;;;;;;33.53;14.13;;;10.10;99.90;;;;;;5017299;28;20456;-80
2022/12/21 10:06:57;;;;;;;31.30;16.70;;;10.20;99.90;;;;;;5013382;28;20490;-82
2022/12/21 10:09:46;;;;;;;34.93;18.57;;;9.90;99.90;;;;;;5018021;28;20492;-81
2022/12/21 10:12:21;;;;;;;36.40;17.27;;;10.40;99.90;;;;;;5011362;28;20464;-81
2022/12/21 10:15:13;;;;;;;39.00;17.37;;;10.00;99.90;;;;;;5017136;28;20476;-81
2022/12/21 10:17:55;;;;;;;34.77;15.53;;;9.90;99.90;;;;;;5022437;28;20840;-80
2022/12/21 10:20:40;;;;;;;36.23;16.43;;;9.90;99.90;;;;;;5037216;28;20538;-80
2022/12/21 10:23:16;;;;;;;37.53;15.20;;;10.20;99.90;;;;;;5021494;28;20448;-79
2022/12/21 10:25:46;;;;;;;31.33;14.47;;;10.70;99.90;;;;;;5027571;28;20498;-79
2022/12/21 10:28:24;;;;;;;25.47;12.73;;;10.30;99.90;;;;;;5037792;28;20453;-83
2022/12/21 10:31:01;;;;;;;31.90;13.70;;;11.10;99.90;;;;;;5026896;28;20495;-82
2022/12/21 10:33:30;;;;;;;25.23;13.83;;;10.50;99.90;;;;;;5023343;28;20446;-80
2022/12/21 10:36:01;;;;;;;28.10;13.60;;;10.50;99.90;;;;;;5038398;28;20483;-81
2022/12/21 10:38:33;;;;;;;23.40;12.57;;;10.40;99.90;;;;;;5030844;28;20457;-81
2022/12/21 10:41:01;;;;;;;19.67;10.90;;;10.40;99.90;;;;;;5038157;28;20493;-80
2022/12/21 10:43:29;;;;;;;13.83;9.03;;;10.40;99.90;;;;;;5026376;28;20440;-81
2022/12/21 10:45:56;;;;;;;12.20;8.07;;;10.30;99.90;;;;;;5018999;28;20499;-80
2022/12/21 10:48:23;;;;;;;15.93;8.20;;;10.20;99.90;;;;;;5034791;28;20475;-80
2022/12/21 10:50:53;;;;;;;17.30;8.60;;;10.10;99.90;;;;;;5019183;28;21004;-80
2022/12/21 10:53:25;;;;;;;16.87;10.20;;;10.10;99.90;;;;;;5021238;28;20460;-80
2022/12/21 10:55:54;;;;;;;20.83;12.77;;;9.90;99.90;;;;;;5025908;28;20485;-80
2022/12/21 10:58:24;;;;;;;16.77;10.00;;;10.30;99.90;;;;;;5017986;28;20449;-80
2022/12/21 11:00:56;;;;;;;18.23;11.60;;;10.00;99.90;;;;;;5028838;28;20466;-80
2022/12/21 11:03:27;;;;;;;17.17;11.63;;;10.10;99.90;;;;;;5037526;28;20454;-81
2022/12/21 11:05:55;;;;;;;16.90;10.23;;;10.10;99.90;;;;;;5035748;28;20494;-80
2022/12/21 11:08:30;;;;;;;16.20;9.03;;;10.20;99.90;;;;;;5034709;28;20458;-81
2022/12/21 11:11:00;;;;;;;12.10;7.20;;;10.20;99.90;;;;;;5020855;28;20869;-81
2022/12/21 11:13:29;;;;;;;11.50;8.70;;;10.30;99.90;;;;;;5016849;28;20510;-80
2022/12/21 11:16:07;;;;;;;15.83;8.53;;;10.50;99.90;;;;;;5024671;28;20469;-81
2022/12/21 11:18:42;;;;;;;12.80;7.30;;;10.50;99.90;;;;;;5016981;28;20443;-80
2022/12/21 11:21:32;;;;;;;12.37;6.87;;;10.70;99.90;;;;;;5039035;28;20449;-81
2022/12/21 11:24:01;;;;;;;17.80;8.20;;;10.70;99.90;;;;;;5037753;28;20462;-81
2022/12/21 11:26:31;;;;;;;14.20;8.10;;;10.80;99.90;;;;;;5023837;28;21013;-81
2022/12/21 11:29:04;;;;;;;13.93;8.23;;;10.80;99.90;;;;;;5018969;28;20468;-81
2022/12/21 11:31:32;;;;;;;13.63;7.57;;;10.90;99.90;;;;;;5019405;28;20540;-81
2022/12/21 11:33:59;;;;;;;9.87;6.33;;;11.10;99.90;;;;;;5019082;28;20448;-80
2022/12/21 11:36:27;;;;;;;9.23;5.67;;;11.40;99.90;;;;;;5019406;28;20563;-80
2022/12/21 11:38:54;;;;;;;10.37;6.00;;;11.60;99.90;;;;;;5016866;28;20463;-79
2022/12/21 11:41:26;;;;;;;12.80;6.10;;;11.60;99.90;;;;;;5016749;28;20454;-81
2022/12/21 11:43:53;;;;;;;14.00;6.90;;;11.70;99.90;;;;;;5015369;28;21043;-80
2022/12/21 11:46:38;;;;;;;11.73;6.87;;;11.50;99.90;;;;;;5019511;28;20494;-80
2022/12/21 11:49:33;;;;;;;12.80;6.23;;;11.60;99.90;;;;;;5015342;28;20450;-79
2022/12/21 11:52:10;;;;;;;12.70;7.43;;;11.40;99.90;;;;;;5017515;28;20447;-81
2022/12/21 11:54:47;;;;;;;19.53;7.57;;;11.30;99.90;;;;;;5018549;28;20865;-81
2022/12/21 11:57:26;;;;;;;12.33;6.27;;;11.20;99.90;;;;;;5002999;28;20908;-80
2022/12/21 12:00:08;;;;;;;10.73;6.40;;;11.20;99.90;;;;;;5006316;28;20505;-81
2022/12/21 12:03:10;;;;;;;13.10;7.93;;;11.30;99.90;;;;;;5007209;28;20449;-81
2022/12/21 12:05:58;;;;;;;12.00;7.60;;;11.20;99.90;;;;;;5011193;28;20488;-80
2022/12/21 12:08:41;;;;;;;11.90;7.10;;;11.10;99.90;;;;;;5014865;28;20447;-81
2022/12/21 12:11:24;;;;;;;8.90;6.23;;;10.90;99.90;;;;;;5016667;28;20473;-81
2022/12/21 12:14:15;;;;;;;7.80;6.10;;;10.80;99.90;;;;;;5017954;28;20460;-80
2022/12/21 12:16:54;;;;;;;14.33;6.10;;;10.80;99.90;;;;;;5014355;28;20996;-82
2022/12/21 12:19:34;;;;;;;13.10;5.70;;;10.80;99.90;;;;;;5019687;28;20478;-79
2022/12/21 12:22:22;;;;;;;10.00;6.00;;;10.60;99.90;;;;;;5012021;28;20545;-81
2022/12/21 12:25:08;;;;;;;10.00;5.70;;;10.50;99.90;;;;;;5017112;28;20484;-81
2022/12/21 12:27:52;;;;;;;16.00;5.60;;;10.60;99.90;;;;;;5019114;28;20489;-81
2022/12/21 12:30:21;;;;;;;11.33;6.30;;;10.70;99.90;;;;;;5028082;28;20516;-80
2022/12/21 12:33:10;;;;;;;8.30;5.20;;;10.70;99.90;;;;;;5017515;28;20651;-79
2022/12/21 12:36:09;;;;;;;10.73;5.50;;;10.70;99.90;;;;;;5056173;22;20576;-83
2022/12/21 12:38:43;;;;;;;14.20;7.10;;;10.70;99.90;;;;;;5015531;28;20462;-84
2022/12/21 12:41:27;;;;;;;15.87;6.87;;;10.70;99.90;;;;;;5013440;28;20456;-83
2022/12/21 12:44:00;;;;;;;11.70;7.20;;;10.60;99.90;;;;;;5015982;28;20479;-83
2022/12/21 12:46:42;;;;;;;15.00;5.47;;;10.50;99.90;;;;;;5009621;28;20502;-84
2022/12/21 12:49:23;;;;;;;16.37;6.10;;;10.50;99.90;;;;;;4999646;28;20550;-84
2022/12/21 12:51:57;;;;;;;12.60;5.83;;;10.40;99.90;;;;;;4999073;28;20512;-84
2022/12/21 12:54:31;;;;;;;11.23;5.17;;;10.40;99.90;;;;;;5000380;28;20986;-83
2022/12/21 12:57:07;;;;;;;10.10;5.40;;;10.30;99.90;;;;;;5007919;28;20529;-83
2022/12/21 12:59:41;;;;;;;14.43;5.70;;;10.40;99.90;;;;;;5011069;28;20489;-85
2022/12/21 13:02:13;;;;;;;10.73;5.17;;;10.40;99.90;;;;;;5011812;28;20456;-85
2022/12/21 13:05:05;;;;;;;11.23;5.43;;;10.50;99.90;;;;;;5010704;28;20488;-83
2022/12/21 13:07:40;;;;;;;15.53;4.90;;;10.40;99.90;;;;;;5010567;28;20484;-84